sensor_id;sensor_type;location;lat;lon;timestamp;P1;durP1;ratioP1;P2;durP2;ratioP2
33006;SDS011;19361;51.598;7.650;2023-10-13T00:01:16;12.77;;;7.35;;
33006;SDS011;19361;51.598;7.650;2023-10-13T00:06:17;10.82;;;7.20;;
33006;SDS011;19361;51.598;7.650;2023-10-13T00:11:18;9.90;;;6.78;;
33006;SDS011;19361;51.598;7.650;2023-10-13T00:16:21;21.83;;;7.75;;
33006;SDS011;19361;51.598;7.650;2023-10-13T00:21:24;16.92;;;7.28;;
33006;SDS011;19361;51.598;7.650;2023-10-13T00:26:31;9.97;;;6.83;;
33006;SDS011;19361;51.598;7.650;2023-10-13T00:31:36;13.60;;;6.90;;
33006;SDS011;19361;51.598;7.650;2023-10-13T00:36:42;10.13;;;6.40;;
33006;SDS011;19361;51.598;7.650;2023-10-13T00:42:09;11.82;;;7.50;;
33006;SDS011;19361;51.598;7.650;2023-10-13T00:47:18;11.55;;;7.07;;
33006;SDS011;19361;51.598;7.650;2023-10-13T00:52:37;13.48;;;6.90;;
33006;SDS011;19361;51.598;7.650;2023-10-13T00:57:41;10.43;;;6.80;;
33006;SDS011;19361;51.598;7.650;2023-10-13T01:02:42;9.63;;;6.70;;
33006;SDS011;19361;51.598;7.650;2023-10-13T01:07:43;9.15;;;6.80;;
33006;SDS011;19361;51.598;7.650;2023-10-13T01:12:44;9.93;;;6.40;;
33006;SDS011;19361;51.598;7.650;2023-10-13T01:17:46;9.27;;;6.75;;
33006;SDS011;19361;51.598;7.650;2023-10-13T01:22:47;11.38;;;6.30;;
33006;SDS011;19361;51.598;7.650;2023-10-13T01:27:55;12.43;;;6.05;;
33006;SDS011;19361;51.598;7.650;2023-10-13T01:32:57;10.45;;;6.18;;
33006;SDS011;19361;51.598;7.650;2023-10-13T01:38:00;8.63;;;5.63;;
33006;SDS011;19361;51.598;7.650;2023-10-13T01:43:01;11.65;;;5.78;;
33006;SDS011;19361;51.598;7.650;2023-10-13T01:48:04;8.63;;;5.80;;
33006;SDS011;19361;51.598;7.650;2023-10-13T01:53:07;10.55;;;7.20;;
33006;SDS011;19361;51.598;7.650;2023-10-13T01:58:17;15.65;;;7.10;;
33006;SDS011;19361;51.598;7.650;2023-10-13T02:03:22;10.23;;;6.50;;
33006;SDS011;19361;51.598;7.650;2023-10-13T02:08:23;8.75;;;6.55;;
33006;SDS011;19361;51.598;7.650;2023-10-13T02:13:26;12.63;;;6.93;;
33006;SDS011;19361;51.598;7.650;2023-10-13T02:18:29;9.38;;;7.03;;
33006;SDS011;19361;51.598;7.650;2023-10-13T02:23:41;8.55;;;6.40;;
33006;SDS011;19361;51.598;7.650;2023-10-13T02:28:45;10.57;;;7.28;;
33006;SDS011;19361;51.598;7.650;2023-10-13T02:33:51;8.80;;;6.75;;
33006;SDS011;19361;51.598;7.650;2023-10-13T02:38:53;8.98;;;6.80;;
33006;SDS011;19361;51.598;7.650;2023-10-13T02:43:57;8.93;;;6.72;;
33006;SDS011;19361;51.598;7.650;2023-10-13T02:48:58;10.35;;;6.88;;
33006;SDS011;19361;51.598;7.650;2023-10-13T02:54:03;14.05;;;6.95;;
33006;SDS011;19361;51.598;7.650;2023-10-13T02:59:10;7.57;;;6.65;;
33006;SDS011;19361;51.598;7.650;2023-10-13T03:04:12;9.98;;;6.40;;
33006;SDS011;19361;51.598;7.650;2023-10-13T03:09:13;8.23;;;6.25;;
33006;SDS011;19361;51.598;7.650;2023-10-13T03:14:15;7.45;;;6.43;;
33006;SDS011;19361;51.598;7.650;2023-10-13T03:19:32;7.47;;;6.75;;
33006;SDS011;19361;51.598;7.650;2023-10-13T03:24:34;8.43;;;6.85;;
33006;SDS011;19361;51.598;7.650;2023-10-13T03:29:36;8.75;;;6.57;;
33006;SDS011;19361;51.598;7.650;2023-10-13T03:34:42;8.82;;;6.65;;
33006;SDS011;19361;51.598;7.650;2023-10-13T03:40:10;8.93;;;6.53;;
33006;SDS011;19361;51.598;7.650;2023-10-13T03:45:21;7.95;;;7.05;;
33006;SDS011;19361;51.598;7.650;2023-10-13T03:50:22;9.70;;;6.65;;
33006;SDS011;19361;51.598;7.650;2023-10-13T03:55:29;9.95;;;6.22;;
33006;SDS011;19361;51.598;7.650;2023-10-13T04:00:30;8.05;;;7.00;;
33006;SDS011;19361;51.598;7.650;2023-10-13T04:05:32;8.95;;;6.88;;
33006;SDS011;19361;51.598;7.650;2023-10-13T04:10:44;8.80;;;6.78;;
33006;SDS011;19361;51.598;7.650;2023-10-13T04:15:51;6.97;;;6.28;;
33006;SDS011;19361;51.598;7.650;2023-10-13T04:21:10;9.55;;;6.68;;
33006;SDS011;19361;51.598;7.650;2023-10-13T04:26:31;6.53;;;5.85;;
33006;SDS011;19361;51.598;7.650;2023-10-13T04:31:37;8.80;;;6.43;;
33006;SDS011;19361;51.598;7.650;2023-10-13T04:36:56;11.43;;;6.38;;
33006;SDS011;19361;51.598;7.650;2023-10-13T04:42:16;6.70;;;6.00;;
33006;SDS011;19361;51.598;7.650;2023-10-13T04:47:37;7.15;;;5.63;;
33006;SDS011;19361;51.598;7.650;2023-10-13T04:52:56;7.43;;;6.32;;
33006;SDS011;19361;51.598;7.650;2023-10-13T04:58:13;9.88;;;6.55;;
33006;SDS011;19361;51.598;7.650;2023-10-13T05:03:40;8.85;;;7.25;;
33006;SDS011;19361;51.598;7.650;2023-10-13T05:08:52;10.35;;;7.28;;
33006;SDS011;19361;51.598;7.650;2023-10-13T05:14:11;8.70;;;7.10;;
33006;SDS011;19361;51.598;7.650;2023-10-13T05:19:30;9.48;;;6.72;;
33006;SDS011;19361;51.598;7.650;2023-10-13T05:24:49;8.18;;;6.45;;
33006;SDS011;19361;51.598;7.650;2023-10-13T05:30:09;10.25;;;6.10;;
33006;SDS011;19361;51.598;7.650;2023-10-13T05:35:30;8.50;;;6.53;;
33006;SDS011;19361;51.598;7.650;2023-10-13T05:40:57;9.73;;;7.25;;
33006;SDS011;19361;51.598;7.650;2023-10-13T05:51:31;11.25;;;6.75;;
33006;SDS011;19361;51.598;7.650;2023-10-13T05:56:32;10.87;;;7.27;;
33006;SDS011;19361;51.598;7.650;2023-10-13T06:01:51;11.60;;;6.95;;
33006;SDS011;19361;51.598;7.650;2023-10-13T06:07:10;9.82;;;6.50;;
33006;SDS011;19361;51.598;7.650;2023-10-13T06:12:29;9.73;;;7.68;;
33006;SDS011;19361;51.598;7.650;2023-10-13T06:17:48;15.02;;;6.13;;
33006;SDS011;19361;51.598;7.650;2023-10-13T06:23:07;7.40;;;5.65;;
33006;SDS011;19361;51.598;7.650;2023-10-13T06:28:27;8.20;;;6.18;;
33006;SDS011;19361;51.598;7.650;2023-10-13T06:33:42;10.23;;;6.15;;
33006;SDS011;19361;51.598;7.650;2023-10-13T06:38:45;9.55;;;5.88;;
33006;SDS011;19361;51.598;7.650;2023-10-13T06:43:54;7.55;;;5.05;;
33006;SDS011;19361;51.598;7.650;2023-10-13T06:48:59;8.38;;;4.18;;
33006;SDS011;19361;51.598;7.650;2023-10-13T06:54:00;8.77;;;4.43;;
33006;SDS011;19361;51.598;7.650;2023-10-13T06:59:02;6.75;;;4.13;;
33006;SDS011;19361;51.598;7.650;2023-10-13T07:04:07;8.88;;;4.43;;
33006;SDS011;19361;51.598;7.650;2023-10-13T07:09:15;8.63;;;4.57;;
33006;SDS011;19361;51.598;7.650;2023-10-13T07:14:46;6.97;;;3.67;;
33006;SDS011;19361;51.598;7.650;2023-10-13T07:19:59;5.65;;;4.22;;
33006;SDS011;19361;51.598;7.650;2023-10-13T07:25:14;10.23;;;4.18;;
33006;SDS011;19361;51.598;7.650;2023-10-13T07:30:23;4.38;;;3.90;;
33006;SDS011;19361;51.598;7.650;2023-10-13T07:35:26;8.75;;;4.22;;
33006;SDS011;19361;51.598;7.650;2023-10-13T07:40:30;8.25;;;4.20;;
33006;SDS011;19361;51.598;7.650;2023-10-13T07:45:40;9.30;;;4.25;;
33006;SDS011;19361;51.598;7.650;2023-10-13T07:50:40;8.10;;;4.20;;
33006;SDS011;19361;51.598;7.650;2023-10-13T07:55:41;7.53;;;4.18;;
33006;SDS011;19361;51.598;7.650;2023-10-13T08:00:42;6.90;;;4.63;;
33006;SDS011;19361;51.598;7.650;2023-10-13T08:05:51;7.45;;;4.65;;
33006;SDS011;19361;51.598;7.650;2023-10-13T08:10:58;12.10;;;5.20;;
33006;SDS011;19361;51.598;7.650;2023-10-13T08:16:08;9.65;;;5.15;;
33006;SDS011;19361;51.598;7.650;2023-10-13T08:21:09;8.40;;;5.40;;
33006;SDS011;19361;51.598;7.650;2023-10-13T08:26:16;9.93;;;5.30;;
33006;SDS011;19361;51.598;7.650;2023-10-13T08:31:30;11.02;;;4.85;;
33006;SDS011;19361;51.598;7.650;2023-10-13T08:36:31;15.73;;;6.28;;
33006;SDS011;19361;51.598;7.650;2023-10-13T08:41:32;13.32;;;5.78;;
33006;SDS011;19361;51.598;7.650;2023-10-13T08:46:38;10.70;;;5.75;;
33006;SDS011;19361;51.598;7.650;2023-10-13T08:52:03;10.48;;;5.40;;
33006;SDS011;19361;51.598;7.650;2023-10-13T08:57:27;10.52;;;5.32;;
33006;SDS011;19361;51.598;7.650;2023-10-13T09:02:33;13.32;;;5.53;;
33006;SDS011;19361;51.598;7.650;2023-10-13T09:07:53;17.55;;;6.10;;
33006;SDS011;19361;51.598;7.650;2023-10-13T09:12:56;18.92;;;5.75;;
33006;SDS011;19361;51.598;7.650;2023-10-13T09:18:03;15.32;;;5.90;;
33006;SDS011;19361;51.598;7.650;2023-10-13T09:23:14;14.88;;;6.57;;
33006;SDS011;19361;51.598;7.650;2023-10-13T09:28:28;18.17;;;7.10;;
33006;SDS011;19361;51.598;7.650;2023-10-13T09:33:31;14.90;;;5.63;;
33006;SDS011;19361;51.598;7.650;2023-10-13T09:38:47;11.80;;;5.10;;
33006;SDS011;19361;51.598;7.650;2023-10-13T09:43:49;11.52;;;5.13;;
33006;SDS011;19361;51.598;7.650;2023-10-13T09:48:54;15.32;;;5.55;;
33006;SDS011;19361;51.598;7.650;2023-10-13T09:54:26;13.35;;;5.45;;
33006;SDS011;19361;51.598;7.650;2023-10-13T09:59:39;13.52;;;5.40;;
33006;SDS011;19361;51.598;7.650;2023-10-13T10:04:53;13.43;;;5.45;;
33006;SDS011;19361;51.598;7.650;2023-10-13T10:10:12;16.67;;;5.47;;
33006;SDS011;19361;51.598;7.650;2023-10-13T10:15:35;17.23;;;5.53;;
33006;SDS011;19361;51.598;7.650;2023-10-13T10:20:47;12.43;;;5.15;;
33006;SDS011;19361;51.598;7.650;2023-10-13T10:25:52;10.38;;;4.75;;
33006;SDS011;19361;51.598;7.650;2023-10-13T10:31:05;10.68;;;4.93;;
33006;SDS011;19361;51.598;7.650;2023-10-13T10:36:17;12.00;;;6.45;;
33006;SDS011;19361;51.598;7.650;2023-10-13T10:41:30;13.45;;;5.68;;
33006;SDS011;19361;51.598;7.650;2023-10-13T10:46:45;12.02;;;5.20;;
33006;SDS011;19361;51.598;7.650;2023-10-13T10:52:00;15.05;;;5.40;;
33006;SDS011;19361;51.598;7.650;2023-10-13T10:57:05;11.65;;;5.47;;
33006;SDS011;19361;51.598;7.650;2023-10-13T11:02:12;15.00;;;5.68;;
33006;SDS011;19361;51.598;7.650;2023-10-13T11:07:22;14.05;;;6.05;;
33006;SDS011;19361;51.598;7.650;2023-10-13T11:12:24;14.55;;;5.80;;
33006;SDS011;19361;51.598;7.650;2023-10-13T11:17:26;14.65;;;6.50;;
33006;SDS011;19361;51.598;7.650;2023-10-13T11:22:38;16.63;;;6.22;;
33006;SDS011;19361;51.598;7.650;2023-10-13T11:27:47;12.40;;;5.60;;
33006;SDS011;19361;51.598;7.650;2023-10-13T11:33:23;12.52;;;6.00;;
33006;SDS011;19361;51.598;7.650;2023-10-13T11:38:19;14.90;;;7.20;;
33006;SDS011;19361;51.598;7.650;2023-10-13T11:48:26;21.23;;;6.45;;
33006;SDS011;19361;51.598;7.650;2023-10-13T11:53:36;15.60;;;7.10;;
33006;SDS011;19361;51.598;7.650;2023-10-13T11:58:40;17.05;;;6.75;;
33006;SDS011;19361;51.598;7.650;2023-10-13T12:03:42;11.95;;;5.47;;
33006;SDS011;19361;51.598;7.650;2023-10-13T12:09:07;14.02;;;6.07;;
33006;SDS011;19361;51.598;7.650;2023-10-13T12:14:16;16.33;;;6.18;;
33006;SDS011;19361;51.598;7.650;2023-10-13T12:19:30;18.20;;;6.25;;
33006;SDS011;19361;51.598;7.650;2023-10-13T12:24:31;13.90;;;6.00;;
33006;SDS011;19361;51.598;7.650;2023-10-13T12:29:37;13.35;;;6.97;;
33006;SDS011;19361;51.598;7.650;2023-10-13T12:34:46;15.60;;;6.22;;
33006;SDS011;19361;51.598;7.650;2023-10-13T12:40:02;25.20;;;6.25;;
33006;SDS011;19361;51.598;7.650;2023-10-13T12:45:30;12.77;;;7.43;;
33006;SDS011;19361;51.598;7.650;2023-10-13T12:50:49;18.00;;;6.45;;
33006;SDS011;19361;51.598;7.650;2023-10-13T12:56:07;20.35;;;7.97;;
33006;SDS011;19361;51.598;7.650;2023-10-13T13:01:11;13.25;;;6.15;;
33006;SDS011;19361;51.598;7.650;2023-10-13T13:06:17;14.52;;;5.97;;
33006;SDS011;19361;51.598;7.650;2023-10-13T13:11:24;13.27;;;6.97;;
33006;SDS011;19361;51.598;7.650;2023-10-13T13:16:26;10.82;;;5.93;;
33006;SDS011;19361;51.598;7.650;2023-10-13T13:21:30;13.38;;;6.18;;
33006;SDS011;19361;51.598;7.650;2023-10-13T13:26:31;11.48;;;5.65;;
33006;SDS011;19361;51.598;7.650;2023-10-13T13:31:31;15.25;;;7.00;;
33006;SDS011;19361;51.598;7.650;2023-10-13T13:36:32;10.07;;;6.00;;
33006;SDS011;19361;51.598;7.650;2023-10-13T13:41:32;14.10;;;6.20;;
33006;SDS011;19361;51.598;7.650;2023-10-13T13:46:33;18.65;;;5.57;;
33006;SDS011;19361;51.598;7.650;2023-10-13T13:51:40;14.82;;;5.65;;
33006;SDS011;19361;51.598;7.650;2023-10-13T13:56:41;15.07;;;5.28;;
33006;SDS011;19361;51.598;7.650;2023-10-13T14:01:42;15.00;;;5.53;;
33006;SDS011;19361;51.598;7.650;2023-10-13T14:06:44;11.00;;;5.40;;
33006;SDS011;19361;51.598;7.650;2023-10-13T14:11:45;12.10;;;5.57;;
33006;SDS011;19361;51.598;7.650;2023-10-13T14:17:17;13.13;;;5.53;;
33006;SDS011;19361;51.598;7.650;2023-10-13T14:22:18;13.65;;;5.57;;
33006;SDS011;19361;51.598;7.650;2023-10-13T14:27:24;13.27;;;5.57;;
33006;SDS011;19361;51.598;7.650;2023-10-13T14:32:25;12.25;;;5.30;;
33006;SDS011;19361;51.598;7.650;2023-10-13T14:37:27;18.48;;;6.00;;
33006;SDS011;19361;51.598;7.650;2023-10-13T14:42:30;20.58;;;5.38;;
33006;SDS011;19361;51.598;7.650;2023-10-13T14:47:35;15.13;;;6.30;;
33006;SDS011;19361;51.598;7.650;2023-10-13T14:52:39;16.67;;;5.53;;
33006;SDS011;19361;51.598;7.650;2023-10-13T14:57:40;12.55;;;6.07;;
33006;SDS011;19361;51.598;7.650;2023-10-13T15:02:41;19.42;;;5.50;;
33006;SDS011;19361;51.598;7.650;2023-10-13T15:07:43;16.02;;;5.38;;
33006;SDS011;19361;51.598;7.650;2023-10-13T15:12:45;15.43;;;5.63;;
33006;SDS011;19361;51.598;7.650;2023-10-13T15:17:45;13.13;;;5.13;;
33006;SDS011;19361;51.598;7.650;2023-10-13T15:22:47;18.38;;;5.85;;
33006;SDS011;19361;51.598;7.650;2023-10-13T15:27:47;15.32;;;5.32;;
33006;SDS011;19361;51.598;7.650;2023-10-13T15:32:55;16.40;;;5.40;;
33006;SDS011;19361;51.598;7.650;2023-10-13T15:37:57;15.43;;;5.28;;
33006;SDS011;19361;51.598;7.650;2023-10-13T15:42:58;14.75;;;5.88;;
33006;SDS011;19361;51.598;7.650;2023-10-13T15:47:59;17.70;;;5.85;;
33006;SDS011;19361;51.598;7.650;2023-10-13T15:53:04;22.23;;;6.53;;
33006;SDS011;19361;51.598;7.650;2023-10-13T15:58:06;14.05;;;6.15;;
33006;SDS011;19361;51.598;7.650;2023-10-13T16:03:07;17.45;;;5.68;;
33006;SDS011;19361;51.598;7.650;2023-10-13T16:08:11;15.65;;;5.20;;
33006;SDS011;19361;51.598;7.650;2023-10-13T16:13:12;15.52;;;5.78;;
33006;SDS011;19361;51.598;7.650;2023-10-13T16:18:15;17.65;;;5.97;;
33006;SDS011;19361;51.598;7.650;2023-10-13T16:23:21;10.18;;;4.85;;
33006;SDS011;19361;51.598;7.650;2023-10-13T16:28:23;13.05;;;5.13;;
33006;SDS011;19361;51.598;7.650;2023-10-13T16:33:24;14.65;;;4.95;;
33006;SDS011;19361;51.598;7.650;2023-10-13T16:38:25;12.82;;;5.13;;
33006;SDS011;19361;51.598;7.650;2023-10-13T16:43:28;21.25;;;6.88;;
33006;SDS011;19361;51.598;7.650;2023-10-13T16:48:28;15.35;;;5.20;;
33006;SDS011;19361;51.598;7.650;2023-10-13T16:53:31;12.52;;;5.65;;
33006;SDS011;19361;51.598;7.650;2023-10-13T16:58:32;10.93;;;5.60;;
33006;SDS011;19361;51.598;7.650;2023-10-13T17:03:36;13.75;;;5.70;;
33006;SDS011;19361;51.598;7.650;2023-10-13T17:08:38;15.30;;;5.57;;
33006;SDS011;19361;51.598;7.650;2023-10-13T17:13:39;11.55;;;5.80;;
33006;SDS011;19361;51.598;7.650;2023-10-13T17:18:51;17.00;;;5.35;;
33006;SDS011;19361;51.598;7.650;2023-10-13T17:23:54;16.38;;;5.93;;
33006;SDS011;19361;51.598;7.650;2023-10-13T17:28:56;14.27;;;5.05;;
33006;SDS011;19361;51.598;7.650;2023-10-13T17:33:58;9.68;;;4.90;;
33006;SDS011;19361;51.598;7.650;2023-10-13T17:38:59;12.30;;;5.40;;
33006;SDS011;19361;51.598;7.650;2023-10-13T17:44:00;11.30;;;5.45;;
33006;SDS011;19361;51.598;7.650;2023-10-13T17:49:03;18.50;;;5.45;;
33006;SDS011;19361;51.598;7.650;2023-10-13T17:54:04;11.52;;;6.10;;
33006;SDS011;19361;51.598;7.650;2023-10-13T17:59:05;12.52;;;5.78;;
33006;SDS011;19361;51.598;7.650;2023-10-13T18:04:06;10.35;;;5.03;;
33006;SDS011;19361;51.598;7.650;2023-10-13T18:09:09;9.52;;;5.32;;
33006;SDS011;19361;51.598;7.650;2023-10-13T18:14:13;10.98;;;5.30;;
33006;SDS011;19361;51.598;7.650;2023-10-13T18:19:15;11.50;;;4.78;;
33006;SDS011;19361;51.598;7.650;2023-10-13T18:24:20;11.52;;;6.03;;
33006;SDS011;19361;51.598;7.650;2023-10-13T18:29:23;11.77;;;5.10;;
33006;SDS011;19361;51.598;7.650;2023-10-13T18:34:24;12.55;;;5.32;;
33006;SDS011;19361;51.598;7.650;2023-10-13T18:39:26;17.08;;;6.63;;
33006;SDS011;19361;51.598;7.650;2023-10-13T18:44:34;12.40;;;5.28;;
33006;SDS011;19361;51.598;7.650;2023-10-13T18:49:35;8.95;;;4.95;;
33006;SDS011;19361;51.598;7.650;2023-10-13T18:54:38;10.98;;;5.20;;
33006;SDS011;19361;51.598;7.650;2023-10-13T18:59:40;11.30;;;5.22;;
33006;SDS011;19361;51.598;7.650;2023-10-13T19:04:41;10.98;;;5.53;;
33006;SDS011;19361;51.598;7.650;2023-10-13T19:09:42;16.83;;;4.90;;
33006;SDS011;19361;51.598;7.650;2023-10-13T19:14:44;9.05;;;4.97;;
33006;SDS011;19361;51.598;7.650;2023-10-13T19:19:44;14.15;;;5.47;;
33006;SDS011;19361;51.598;7.650;2023-10-13T19:24:45;14.27;;;5.93;;
33006;SDS011;19361;51.598;7.650;2023-10-13T19:29:46;12.20;;;5.30;;
33006;SDS011;19361;51.598;7.650;2023-10-13T19:34:47;13.82;;;5.82;;
33006;SDS011;19361;51.598;7.650;2023-10-13T19:39:47;8.90;;;6.22;;
33006;SDS011;19361;51.598;7.650;2023-10-13T19:44:48;12.90;;;5.78;;
33006;SDS011;19361;51.598;7.650;2023-10-13T19:49:49;10.50;;;6.18;;
33006;SDS011;19361;51.598;7.650;2023-10-13T19:54:49;11.05;;;5.93;;
33006;SDS011;19361;51.598;7.650;2023-10-13T19:59:51;12.35;;;6.88;;
33006;SDS011;19361;51.598;7.650;2023-10-13T20:04:52;9.38;;;5.13;;
33006;SDS011;19361;51.598;7.650;2023-10-13T20:09:55;15.48;;;5.60;;
33006;SDS011;19361;51.598;7.650;2023-10-13T20:14:55;11.77;;;6.03;;
33006;SDS011;19361;51.598;7.650;2023-10-13T20:19:56;15.07;;;5.63;;
33006;SDS011;19361;51.598;7.650;2023-10-13T20:25:00;15.45;;;6.28;;
33006;SDS011;19361;51.598;7.650;2023-10-13T20:30:01;12.57;;;6.13;;
33006;SDS011;19361;51.598;7.650;2023-10-13T20:40:09;13.98;;;6.53;;
33006;SDS011;19361;51.598;7.650;2023-10-13T20:45:19;14.57;;;6.18;;
33006;SDS011;19361;51.598;7.650;2023-10-13T20:50:23;13.75;;;6.00;;
33006;SDS011;19361;51.598;7.650;2023-10-13T20:55:23;14.73;;;6.38;;
33006;SDS011;19361;51.598;7.650;2023-10-13T21:00:24;13.02;;;6.75;;
33006;SDS011;19361;51.598;7.650;2023-10-13T21:05:25;13.05;;;6.03;;
33006;SDS011;19361;51.598;7.650;2023-10-13T21:10:26;19.40;;;7.22;;
33006;SDS011;19361;51.598;7.650;2023-10-13T21:15:26;18.90;;;7.13;;
33006;SDS011;19361;51.598;7.650;2023-10-13T21:20:27;13.82;;;7.28;;
33006;SDS011;19361;51.598;7.650;2023-10-13T21:25:29;13.93;;;6.70;;
33006;SDS011;19361;51.598;7.650;2023-10-13T21:30:35;11.57;;;6.93;;
33006;SDS011;19361;51.598;7.650;2023-10-13T21:35:36;14.30;;;6.72;;
33006;SDS011;19361;51.598;7.650;2023-10-13T21:40:39;12.57;;;5.80;;
33006;SDS011;19361;51.598;7.650;2023-10-13T21:45:40;14.02;;;6.38;;
33006;SDS011;19361;51.598;7.650;2023-10-13T21:50:45;13.60;;;6.28;;
33006;SDS011;19361;51.598;7.650;2023-10-13T21:55:47;13.18;;;6.32;;
33006;SDS011;19361;51.598;7.650;2023-10-13T22:00:48;13.30;;;5.95;;
33006;SDS011;19361;51.598;7.650;2023-10-13T22:05:58;11.52;;;6.07;;
33006;SDS011;19361;51.598;7.650;2023-10-13T22:11:00;18.40;;;7.32;;
33006;SDS011;19361;51.598;7.650;2023-10-13T22:16:03;14.77;;;6.72;;
33006;SDS011;19361;51.598;7.650;2023-10-13T22:21:10;16.23;;;6.57;;
33006;SDS011;19361;51.598;7.650;2023-10-13T22:26:13;19.17;;;6.88;;
33006;SDS011;19361;51.598;7.650;2023-10-13T22:31:16;22.70;;;7.82;;
33006;SDS011;19361;51.598;7.650;2023-10-13T22:36:25;13.43;;;6.60;;
33006;SDS011;19361;51.598;7.650;2023-10-13T22:41:26;18.15;;;7.43;;
33006;SDS011;19361;51.598;7.650;2023-10-13T22:46:33;18.73;;;7.10;;
33006;SDS011;19361;51.598;7.650;2023-10-13T22:51:33;13.55;;;6.85;;
33006;SDS011;19361;51.598;7.650;2023-10-13T22:56:34;17.35;;;7.70;;
33006;SDS011;19361;51.598;7.650;2023-10-13T23:01:35;15.23;;;6.95;;
33006;SDS011;19361;51.598;7.650;2023-10-13T23:06:42;15.35;;;7.72;;
33006;SDS011;19361;51.598;7.650;2023-10-13T23:11:49;14.30;;;7.47;;
33006;SDS011;19361;51.598;7.650;2023-10-13T23:16:56;15.18;;;7.68;;
33006;SDS011;19361;51.598;7.650;2023-10-13T23:21:57;14.32;;;7.45;;
33006;SDS011;19361;51.598;7.650;2023-10-13T23:26:59;17.02;;;7.40;;
33006;SDS011;19361;51.598;7.650;2023-10-13T23:31:59;13.60;;;6.75;;
33006;SDS011;19361;51.598;7.650;2023-10-13T23:37:01;10.75;;;7.25;;
33006;SDS011;19361;51.598;7.650;2023-10-13T23:42:03;16.27;;;7.30;;
33006;SDS011;19361;51.598;7.650;2023-10-13T23:47:07;13.35;;;6.93;;
33006;SDS011;19361;51.598;7.650;2023-10-13T23:52:10;23.83;;;8.07;;
33006;SDS011;19361;51.598;7.650;2023-10-13T23:57:10;15.77;;;7.32;;
